sensor_id;sensor_type;location;lat;lon;timestamp;pressure;altitude;pressure_sealevel;temperature;humidity
71424;BME280;59240;51.370;-0.486;2023-04-08T00:02:12;102268.06;;;6.05;70.17
71424;BME280;59240;51.370;-0.486;2023-04-08T00:04:39;102286.34;;;6.14;69.79
71424;BME280;59240;51.370;-0.486;2023-04-08T00:07:06;102252.28;;;5.92;70.23
71424;BME280;59240;51.370;-0.486;2023-04-08T00:09:33;102242.47;;;5.78;70.21
71424;BME280;59240;51.370;-0.486;2023-04-08T00:12:00;102297.47;;;6.10;70.71
71424;BME280;59240;51.370;-0.486;2023-04-08T00:14:27;102252.00;;;5.80;70.64
71424;BME280;59240;51.370;-0.486;2023-04-08T00:16:53;102273.84;;;5.91;70.49
71424;BME280;59240;51.370;-0.486;2023-04-08T00:19:21;102252.72;;;5.74;70.57
71424;BME280;59240;51.370;-0.486;2023-04-08T00:21:48;102298.94;;;5.97;70.78
71424;BME280;59240;51.370;-0.486;2023-04-08T00:24:14;102283.94;;;5.82;71.26
71424;BME280;59240;51.370;-0.486;2023-04-08T00:26:42;102290.06;;;5.87;71.63
71424;BME280;59240;51.370;-0.486;2023-04-08T00:29:08;102308.31;;;5.92;71.97
71424;BME280;59240;51.370;-0.486;2023-04-08T00:31:35;102255.03;;;5.61;71.24
71424;BME280;59240;51.370;-0.486;2023-04-08T00:34:03;102276.66;;;5.64;71.35
71424;BME280;59240;51.370;-0.486;2023-04-08T00:36:30;102267.06;;;5.59;71.86
71424;BME280;59240;51.370;-0.486;2023-04-08T00:38:56;102281.09;;;5.70;71.90
71424;BME280;59240;51.370;-0.486;2023-04-08T00:41:23;102307.16;;;5.79;72.14
71424;BME280;59240;51.370;-0.486;2023-04-08T00:43:51;102253.84;;;5.46;72.30
71424;BME280;59240;51.370;-0.486;2023-04-08T00:46:17;102273.91;;;5.57;72.17
71424;BME280;59240;51.370;-0.486;2023-04-08T00:48:44;102274.78;;;5.57;71.95
71424;BME280;59240;51.370;-0.486;2023-04-08T00:51:11;102238.91;;;5.33;72.40
71424;BME280;59240;51.370;-0.486;2023-04-08T00:53:38;102276.31;;;5.49;72.38
71424;BME280;59240;51.370;-0.486;2023-04-08T00:56:05;102285.91;;;5.55;71.81
71424;BME280;59240;51.370;-0.486;2023-04-08T00:58:31;102274.34;;;5.39;72.31
71424;BME280;59240;51.370;-0.486;2023-04-08T01:01:02;102309.28;;;5.59;73.62
71424;BME280;59240;51.370;-0.486;2023-04-08T01:06:35;102322.19;;;5.58;72.90
71424;BME280;59240;51.370;-0.486;2023-04-08T01:09:09;102300.16;;;5.37;73.49
71424;BME280;59240;51.370;-0.486;2023-04-08T01:11:41;102313.09;;;5.37;73.32
71424;BME280;59240;51.370;-0.486;2023-04-08T01:14:11;102292.06;;;5.22;72.92
71424;BME280;59240;51.370;-0.486;2023-04-08T01:16:42;102299.84;;;5.24;73.04
71424;BME280;59240;51.370;-0.486;2023-04-08T01:19:38;102274.41;;;5.06;73.78
71424;BME280;59240;51.370;-0.486;2023-04-08T01:22:33;102301.53;;;5.23;75.30
71424;BME280;59240;51.370;-0.486;2023-04-08T01:25:11;102291.81;;;5.13;74.17
71424;BME280;59240;51.370;-0.486;2023-04-08T01:27:41;102304.19;;;5.26;73.86
71424;BME280;59240;51.370;-0.486;2023-04-08T01:30:09;102296.06;;;5.11;73.17
71424;BME280;59240;51.370;-0.486;2023-04-08T01:32:37;102277.78;;;5.02;73.96
71424;BME280;59240;51.370;-0.486;2023-04-08T01:35:05;102272.34;;;4.92;73.35
71424;BME280;59240;51.370;-0.486;2023-04-08T01:37:33;102288.00;;;4.99;73.69
71424;BME280;59240;51.370;-0.486;2023-04-08T01:40:01;102305.41;;;5.06;73.88
71424;BME280;59240;51.370;-0.486;2023-04-08T01:42:28;102294.91;;;5.00;74.17
71424;BME280;59240;51.370;-0.486;2023-04-08T01:44:57;102286.28;;;4.98;73.94
71424;BME280;59240;51.370;-0.486;2023-04-08T01:47:25;102320.22;;;5.13;73.91
71424;BME280;59240;51.370;-0.486;2023-04-08T01:49:52;102279.03;;;4.84;73.94
71424;BME280;59240;51.370;-0.486;2023-04-08T01:52:19;102279.88;;;4.83;74.46
71424;BME280;59240;51.370;-0.486;2023-04-08T01:54:48;102283.28;;;4.81;74.44
71424;BME280;59240;51.370;-0.486;2023-04-08T01:57:19;102275.47;;;4.79;74.86
71424;BME280;59240;51.370;-0.486;2023-04-08T01:59:51;102331.22;;;5.06;75.07
71424;BME280;59240;51.370;-0.486;2023-04-08T02:02:19;102341.66;;;5.09;75.65
71424;BME280;59240;51.370;-0.486;2023-04-08T02:04:48;102303.28;;;4.89;75.79
71424;BME280;59240;51.370;-0.486;2023-04-08T02:07:15;102332.06;;;5.05;74.92
71424;BME280;59240;51.370;-0.486;2023-04-08T02:09:43;102312.72;;;4.87;75.23
71424;BME280;59240;51.370;-0.486;2023-04-08T02:12:10;102282.94;;;4.69;74.36
71424;BME280;59240;51.370;-0.486;2023-04-08T02:14:37;102336.25;;;5.00;74.92
71424;BME280;59240;51.370;-0.486;2023-04-08T02:17:20;102327.53;;;4.94;76.50
71424;BME280;59240;51.370;-0.486;2023-04-08T02:19:59;102295.06;;;4.71;75.76
71424;BME280;59240;51.370;-0.486;2023-04-08T02:22:46;102325.63;;;4.87;75.80
71424;BME280;59240;51.370;-0.486;2023-04-08T02:25:15;102313.22;;;4.74;75.31
71424;BME280;59240;51.370;-0.486;2023-04-08T02:27:43;102316.59;;;4.73;75.32
71424;BME280;59240;51.370;-0.486;2023-04-08T02:30:12;102279.84;;;4.49;75.29
71424;BME280;59240;51.370;-0.486;2023-04-08T02:32:40;102323.38;;;4.68;75.81
71424;BME280;59240;51.370;-0.486;2023-04-08T02:35:10;102300.66;;;4.55;76.01
71424;BME280;59240;51.370;-0.486;2023-04-08T02:37:37;102340.78;;;4.75;75.87
71424;BME280;59240;51.370;-0.486;2023-04-08T02:40:24;102320.59;;;4.60;76.91
71424;BME280;59240;51.370;-0.486;2023-04-08T02:42:52;102311.81;;;4.54;75.83
71424;BME280;59240;51.370;-0.486;2023-04-08T02:45:19;102331.78;;;4.61;75.64
71424;BME280;59240;51.370;-0.486;2023-04-08T02:47:47;102323.91;;;4.56;76.06
71424;BME280;59240;51.370;-0.486;2023-04-08T02:50:14;102294.13;;;4.37;76.08
71424;BME280;59240;51.370;-0.486;2023-04-08T02:52:40;102328.03;;;4.50;75.79
71424;BME280;59240;51.370;-0.486;2023-04-08T02:55:09;102307.84;;;4.35;75.34
71424;BME280;59240;51.370;-0.486;2023-04-08T02:57:37;102324.25;;;4.38;76.33
71424;BME280;59240;51.370;-0.486;2023-04-08T03:00:05;102320.69;;;4.33;75.94
71424;BME280;59240;51.370;-0.486;2023-04-08T03:02:32;102345.06;;;4.45;75.86
71424;BME280;59240;51.370;-0.486;2023-04-08T03:04:59;102350.16;;;4.42;75.79
71424;BME280;59240;51.370;-0.486;2023-04-08T03:07:26;102331.72;;;4.28;75.96
71424;BME280;59240;51.370;-0.486;2023-04-08T03:09:53;102329.88;;;4.24;75.92
71424;BME280;59240;51.370;-0.486;2023-04-08T03:12:21;102331.41;;;4.17;76.31
71424;BME280;59240;51.370;-0.486;2023-04-08T03:14:49;102347.81;;;4.19;76.54
71424;BME280;59240;51.370;-0.486;2023-04-08T03:17:16;102341.53;;;4.11;77.14
71424;BME280;59240;51.370;-0.486;2023-04-08T03:19:42;102338.69;;;4.02;76.54
71424;BME280;59240;51.370;-0.486;2023-04-08T03:22:09;102339.56;;;4.02;76.47
71424;BME280;59240;51.370;-0.486;2023-04-08T03:24:36;102380.50;;;4.20;76.32
71424;BME280;59240;51.370;-0.486;2023-04-08T03:27:03;102353.34;;;4.04;76.04
71424;BME280;59240;51.370;-0.486;2023-04-08T03:29:29;102374.19;;;4.10;76.60
71424;BME280;59240;51.370;-0.486;2023-04-08T03:31:56;102372.41;;;4.08;76.14
71424;BME280;59240;51.370;-0.486;2023-04-08T03:34:23;102360.88;;;3.97;76.60
71424;BME280;59240;51.370;-0.486;2023-04-08T03:36:50;102356.31;;;3.88;76.93
71424;BME280;59240;51.370;-0.486;2023-04-08T03:39:16;102365.84;;;3.91;76.75
71424;BME280;59240;51.370;-0.486;2023-04-08T03:41:43;102391.94;;;4.00;76.27
71424;BME280;59240;51.370;-0.486;2023-04-08T03:44:09;102345.44;;;3.70;76.98
71424;BME280;59240;51.370;-0.486;2023-04-08T03:46:36;102350.47;;;3.65;76.39
71424;BME280;59240;51.370;-0.486;2023-04-08T03:49:03;102369.50;;;3.70;76.49
71424;BME280;59240;51.370;-0.486;2023-04-08T03:51:30;102339.84;;;3.56;76.95
71424;BME280;59240;51.370;-0.486;2023-04-08T03:53:58;102361.41;;;3.58;76.64
71424;BME280;59240;51.370;-0.486;2023-04-08T03:56:25;102401.56;;;3.78;77.18
71424;BME280;59240;51.370;-0.486;2023-04-08T03:58:51;102378.69;;;3.62;76.83
71424;BME280;59240;51.370;-0.486;2023-04-08T04:01:18;102355.00;;;3.47;76.92
71424;BME280;59240;51.370;-0.486;2023-04-08T04:03:45;102341.66;;;3.32;76.45
71424;BME280;59240;51.370;-0.486;2023-04-08T04:06:12;102405.34;;;3.63;76.78
71424;BME280;59240;51.370;-0.486;2023-04-08T04:08:38;102399.09;;;3.56;76.75
71424;BME280;59240;51.370;-0.486;2023-04-08T04:11:05;102393.75;;;3.50;76.82
71424;BME280;59240;51.370;-0.486;2023-04-08T04:13:32;102400.69;;;3.51;76.45
71424;BME280;59240;51.370;-0.486;2023-04-08T04:15:58;102378.53;;;3.31;76.97
71424;BME280;59240;51.370;-0.486;2023-04-08T04:18:25;102402.00;;;3.40;77.37
71424;BME280;59240;51.370;-0.486;2023-04-08T04:20:52;102392.25;;;3.29;77.88
71424;BME280;59240;51.370;-0.486;2023-04-08T04:23:18;102406.75;;;3.27;77.51
71424;BME280;59240;51.370;-0.486;2023-04-08T04:25:45;102362.91;;;3.00;77.64
71424;BME280;59240;51.370;-0.486;2023-04-08T04:28:12;102390.88;;;3.15;77.56
71424;BME280;59240;51.370;-0.486;2023-04-08T04:30:39;102380.25;;;3.06;77.31
71424;BME280;59240;51.370;-0.486;2023-04-08T04:33:06;102382.88;;;3.08;77.03
71424;BME280;59240;51.370;-0.486;2023-04-08T04:35:33;102364.38;;;2.94;77.21
71424;BME280;59240;51.370;-0.486;2023-04-08T04:38:00;102375.56;;;2.94;77.48
71424;BME280;59240;51.370;-0.486;2023-04-08T04:40:27;102400.88;;;3.06;77.34
71424;BME280;59240;51.370;-0.486;2023-04-08T04:42:53;102401.66;;;3.04;77.22
71424;BME280;59240;51.370;-0.486;2023-04-08T04:45:21;102385.06;;;2.95;77.72
71424;BME280;59240;51.370;-0.486;2023-04-08T04:47:48;102412.16;;;3.10;77.22
71424;BME280;59240;51.370;-0.486;2023-04-08T04:50:14;102396.31;;;2.99;78.02
71424;BME280;59240;51.370;-0.486;2023-04-08T04:52:41;102370.72;;;2.78;77.64
71424;BME280;59240;51.370;-0.486;2023-04-08T04:55:08;102417.91;;;3.03;77.38
71424;BME280;59240;51.370;-0.486;2023-04-08T04:57:35;102356.53;;;2.65;77.72
71424;BME280;59240;51.370;-0.486;2023-04-08T05:00:01;102391.56;;;2.86;77.90
71424;BME280;59240;51.370;-0.486;2023-04-08T05:02:31;102415.78;;;2.91;77.72
71424;BME280;59240;51.370;-0.486;2023-04-08T05:04:57;102443.72;;;3.04;77.86
71424;BME280;59240;51.370;-0.486;2023-04-08T05:07:24;102443.72;;;3.04;77.87
71424;BME280;59240;51.370;-0.486;2023-04-08T05:09:53;102404.16;;;2.78;77.83
71424;BME280;59240;51.370;-0.486;2023-04-08T05:12:19;102442.72;;;3.00;77.96
71424;BME280;59240;51.370;-0.486;2023-04-08T05:14:46;102397.94;;;2.71;77.96
71424;BME280;59240;51.370;-0.486;2023-04-08T05:17:13;102426.06;;;2.91;77.73
71424;BME280;59240;51.370;-0.486;2023-04-08T05:19:39;102404.94;;;2.76;78.12
71424;BME280;59240;51.370;-0.486;2023-04-08T05:22:06;102435.50;;;2.90;78.39
71424;BME280;59240;51.370;-0.486;2023-04-08T05:24:33;102409.97;;;2.72;78.20
71424;BME280;59240;51.370;-0.486;2023-04-08T05:26:59;102438.94;;;2.91;77.83
71424;BME280;59240;51.370;-0.486;2023-04-08T05:29:26;102423.06;;;2.79;78.27
71424;BME280;59240;51.370;-0.486;2023-04-08T05:31:53;102452.78;;;2.94;78.53
71424;BME280;59240;51.370;-0.486;2023-04-08T05:34:22;102409.88;;;2.69;78.16
71424;BME280;59240;51.370;-0.486;2023-04-08T05:36:49;102422.13;;;2.77;78.34
71424;BME280;59240;51.370;-0.486;2023-04-08T05:39:18;102424.44;;;2.69;77.99
71424;BME280;59240;51.370;-0.486;2023-04-08T05:41:45;102413.88;;;2.61;78.26
71424;BME280;59240;51.370;-0.486;2023-04-08T05:44:15;102426.91;;;2.67;78.17
71424;BME280;59240;51.370;-0.486;2023-04-08T05:46:41;102417.34;;;2.63;78.65
71424;BME280;59240;51.370;-0.486;2023-04-08T05:49:08;102381.38;;;2.41;78.52
71424;BME280;59240;51.370;-0.486;2023-04-08T05:51:35;102395.53;;;2.54;78.69
71424;BME280;59240;51.370;-0.486;2023-04-08T05:54:02;102438.50;;;2.79;78.70
71424;BME280;59240;51.370;-0.486;2023-04-08T05:56:31;102470.88;;;2.96;78.25
71424;BME280;59240;51.370;-0.486;2023-04-08T05:58:58;102463.75;;;2.89;78.34
71424;BME280;59240;51.370;-0.486;2023-04-08T06:01:25;102464.75;;;2.92;78.52
71424;BME280;59240;51.370;-0.486;2023-04-08T06:03:54;102493.47;;;3.03;78.68
71424;BME280;59240;51.370;-0.486;2023-04-08T06:06:25;102448.00;;;2.81;79.15
71424;BME280;59240;51.370;-0.486;2023-04-08T06:08:51;102494.56;;;3.10;78.91
71424;BME280;59240;51.370;-0.486;2023-04-08T06:11:21;102448.41;;;2.92;78.95
71424;BME280;59240;51.370;-0.486;2023-04-08T06:13:48;102403.03;;;2.70;78.92
71424;BME280;59240;51.370;-0.486;2023-04-08T06:16:15;102452.03;;;2.97;79.18
71424;BME280;59240;51.370;-0.486;2023-04-08T06:18:46;102469.91;;;3.16;79.31
71424;BME280;59240;51.370;-0.486;2023-04-08T06:21:15;102489.38;;;3.34;79.21
71424;BME280;59240;51.370;-0.486;2023-04-08T06:23:42;102442.19;;;3.09;79.77
71424;BME280;59240;51.370;-0.486;2023-04-08T06:26:12;102466.81;;;3.26;80.07
71424;BME280;59240;51.370;-0.486;2023-04-08T06:28:41;102442.50;;;3.18;79.32
71424;BME280;59240;51.370;-0.486;2023-04-08T06:31:07;102467.25;;;3.39;80.13
71424;BME280;59240;51.370;-0.486;2023-04-08T06:33:38;102438.66;;;3.31;80.35
71424;BME280;59240;51.370;-0.486;2023-04-08T06:36:06;102505.59;;;3.80;80.30
71424;BME280;59240;51.370;-0.486;2023-04-08T06:38:33;102471.66;;;3.68;79.92
71424;BME280;59240;51.370;-0.486;2023-04-08T06:41:01;102487.75;;;3.87;80.27
71424;BME280;59240;51.370;-0.486;2023-04-08T06:43:29;102464.31;;;3.79;80.15
71424;BME280;59240;51.370;-0.486;2023-04-08T06:45:56;102488.22;;;4.00;80.36
71424;BME280;59240;51.370;-0.486;2023-04-08T06:48:28;102516.38;;;4.21;80.61
71424;BME280;59240;51.370;-0.486;2023-04-08T06:50:59;102520.19;;;4.32;80.44
71424;BME280;59240;51.370;-0.486;2023-04-08T06:53:27;102516.97;;;4.39;80.32
71424;BME280;59240;51.370;-0.486;2023-04-08T06:56:01;102528.53;;;4.52;79.97
71424;BME280;59240;51.370;-0.486;2023-04-08T06:58:28;102505.94;;;4.45;80.53
71424;BME280;59240;51.370;-0.486;2023-04-08T07:00:55;102499.03;;;4.44;80.57
71424;BME280;59240;51.370;-0.486;2023-04-08T07:03:22;102538.78;;;4.78;80.60
71424;BME280;59240;51.370;-0.486;2023-04-08T07:05:52;102528.59;;;4.82;80.87
71424;BME280;59240;51.370;-0.486;2023-04-08T07:08:31;102510.28;;;4.75;81.36
71424;BME280;59240;51.370;-0.486;2023-04-08T07:10:58;102530.00;;;5.01;81.79
71424;BME280;59240;51.370;-0.486;2023-04-08T07:13:25;102520.69;;;5.08;81.05
71424;BME280;59240;51.370;-0.486;2023-04-08T07:15:52;102488.13;;;5.13;81.72
71424;BME280;59240;51.370;-0.486;2023-04-08T07:18:18;102476.41;;;5.24;81.19
71424;BME280;59240;51.370;-0.486;2023-04-08T07:20:50;102486.44;;;5.45;81.38
71424;BME280;59240;51.370;-0.486;2023-04-08T07:23:19;102507.81;;;5.72;81.25
71424;BME280;59240;51.370;-0.486;2023-04-08T07:25:49;102481.16;;;5.75;80.91
71424;BME280;59240;51.370;-0.486;2023-04-08T07:28:16;102523.50;;;6.12;81.71
71424;BME280;59240;51.370;-0.486;2023-04-08T07:30:42;102511.69;;;6.23;81.22
71424;BME280;59240;51.370;-0.486;2023-04-08T07:33:09;102529.59;;;6.51;81.29
71424;BME280;59240;51.370;-0.486;2023-04-08T07:35:36;102504.53;;;6.50;81.13
71424;BME280;59240;51.370;-0.486;2023-04-08T07:38:13;102550.47;;;6.97;81.16
71424;BME280;59240;51.370;-0.486;2023-04-08T07:40:44;102514.94;;;6.91;80.69
71424;BME280;59240;51.370;-0.486;2023-04-08T07:43:11;102518.66;;;7.05;81.07
71424;BME280;59240;51.370;-0.486;2023-04-08T07:45:41;102495.56;;;7.16;81.03
71424;BME280;59240;51.370;-0.486;2023-04-08T07:48:07;102467.09;;;7.18;80.51
71424;BME280;59240;51.370;-0.486;2023-04-08T07:50:55;102479.84;;;7.54;81.16
71424;BME280;59240;51.370;-0.486;2023-04-08T07:53:35;102523.13;;;8.06;80.42
71424;BME280;59240;51.370;-0.486;2023-04-08T07:56:02;102505.09;;;8.15;80.18
71424;BME280;59240;51.370;-0.486;2023-04-08T07:58:40;102499.34;;;8.35;80.59
71424;BME280;59240;51.370;-0.486;2023-04-08T08:01:18;102542.44;;;8.80;80.15
71424;BME280;59240;51.370;-0.486;2023-04-08T08:03:48;102545.22;;;8.93;79.50
71424;BME280;59240;51.370;-0.486;2023-04-08T08:06:21;102500.03;;;8.82;79.76
71424;BME280;59240;51.370;-0.486;2023-04-08T08:08:52;102565.69;;;9.39;79.77
71424;BME280;59240;51.370;-0.486;2023-04-08T08:11:42;102583.34;;;9.64;79.46
71424;BME280;59240;51.370;-0.486;2023-04-08T08:14:19;102541.63;;;9.59;78.92
71424;BME280;59240;51.370;-0.486;2023-04-08T08:17:19;102573.25;;;9.98;79.46
71424;BME280;59240;51.370;-0.486;2023-04-08T08:20:02;102498.44;;;9.75;78.88
71424;BME280;59240;51.370;-0.486;2023-04-08T08:22:38;102564.91;;;10.32;78.12
71424;BME280;59240;51.370;-0.486;2023-04-08T08:25:35;102496.13;;;10.15;78.54
71424;BME280;59240;51.370;-0.486;2023-04-08T08:32:11;102516.53;;;10.77;77.16
71424;BME280;59240;51.370;-0.486;2023-04-08T08:35:22;102593.31;;;11.43;77.04
71424;BME280;59240;51.370;-0.486;2023-04-08T08:38:45;102536.78;;;11.39;76.06
71424;BME280;59240;51.370;-0.486;2023-04-08T08:44:31;102513.34;;;11.61;75.67
71424;BME280;59240;51.370;-0.486;2023-04-08T08:56:26;102484.66;;;12.11;74.59
71424;BME280;59240;51.370;-0.486;2023-04-08T08:59:34;102491.56;;;12.38;74.08
71424;BME280;59240;51.370;-0.486;2023-04-08T09:02:22;102488.94;;;12.47;68.20
71424;BME280;59240;51.370;-0.486;2023-04-08T09:05:02;102521.13;;;12.65;71.40
71424;BME280;59240;51.370;-0.486;2023-04-08T09:07:57;102502.84;;;12.62;71.69
71424;BME280;59240;51.370;-0.486;2023-04-08T09:10:45;102481.94;;;12.52;70.89
71424;BME280;59240;51.370;-0.486;2023-04-08T09:13:38;102482.78;;;12.65;71.08
71424;BME280;59240;51.370;-0.486;2023-04-08T09:16:41;102478.38;;;12.75;67.51
71424;BME280;59240;51.370;-0.486;2023-04-08T09:19:35;102527.94;;;13.11;66.42
71424;BME280;59240;51.370;-0.486;2023-04-08T09:22:09;102479.13;;;13.03;67.96
71424;BME280;59240;51.370;-0.486;2023-04-08T09:24:53;102499.06;;;13.30;69.40
71424;BME280;59240;51.370;-0.486;2023-04-08T09:28:24;102482.19;;;13.72;65.07
71424;BME280;59240;51.370;-0.486;2023-04-08T09:31:26;102580.16;;;14.63;67.60
71424;BME280;59240;51.370;-0.486;2023-04-08T09:43:35;102533.78;;;15.38;64.40
71424;BME280;59240;51.370;-0.486;2023-04-08T10:05:43;102598.41;;;17.10;59.43
71424;BME280;59240;51.370;-0.486;2023-04-08T10:13:02;102598.66;;;17.39;54.08
71424;BME280;59240;51.370;-0.486;2023-04-08T10:16:23;102601.28;;;17.39;56.19
71424;BME280;59240;51.370;-0.486;2023-04-08T10:20:39;102597.69;;;17.43;54.43
71424;BME280;59240;51.370;-0.486;2023-04-08T10:52:10;102544.56;;;17.23;51.70
71424;BME280;59240;51.370;-0.486;2023-04-08T10:55:46;102496.94;;;17.32;52.74
71424;BME280;59240;51.370;-0.486;2023-04-08T11:12:51;102486.75;;;17.54;50.91
71424;BME280;59240;51.370;-0.486;2023-04-08T11:31:35;102519.22;;;18.60;48.06
71424;BME280;59240;51.370;-0.486;2023-04-08T11:35:06;102472.81;;;18.20;45.81
71424;BME280;59240;51.370;-0.486;2023-04-08T11:45:49;102503.41;;;18.91;45.61
71424;BME280;59240;51.370;-0.486;2023-04-08T11:56:45;102480.19;;;19.02;44.46
71424;BME280;59240;51.370;-0.486;2023-04-08T12:16:37;102447.81;;;18.96;41.35
71424;BME280;59240;51.370;-0.486;2023-04-08T12:24:51;102508.97;;;19.67;40.93
71424;BME280;59240;51.370;-0.486;2023-04-08T12:27:29;102456.84;;;19.45;39.74
71424;BME280;59240;51.370;-0.486;2023-04-08T12:30:14;102451.81;;;19.37;38.50
71424;BME280;59240;51.370;-0.486;2023-04-08T12:34:37;102473.44;;;19.48;37.32
71424;BME280;59240;51.370;-0.486;2023-04-08T12:42:39;102490.84;;;19.55;38.39
71424;BME280;59240;51.370;-0.486;2023-04-08T12:58:10;102425.63;;;19.01;39.91
71424;BME280;59240;51.370;-0.486;2023-04-08T13:01:15;102402.28;;;18.88;38.57
71424;BME280;59240;51.370;-0.486;2023-04-08T13:08:38;102441.84;;;19.17;37.92
71424;BME280;59240;51.370;-0.486;2023-04-08T13:20:07;102489.00;;;19.85;37.08
71424;BME280;59240;51.370;-0.486;2023-04-08T13:23:13;102405.31;;;19.58;36.64
71424;BME280;59240;51.370;-0.486;2023-04-08T13:27:00;102406.25;;;19.82;34.38
71424;BME280;59240;51.370;-0.486;2023-04-08T13:30:26;102484.25;;;20.46;37.68
71424;BME280;59240;51.370;-0.486;2023-04-08T13:33:40;102435.22;;;20.35;37.88
71424;BME280;59240;51.370;-0.486;2023-04-08T13:57:50;102380.63;;;19.04;36.51
71424;BME280;59240;51.370;-0.486;2023-04-08T14:01:37;102400.16;;;19.53;36.18
71424;BME280;59240;51.370;-0.486;2023-04-08T14:05:42;102450.41;;;20.30;35.90
71424;BME280;59240;51.370;-0.486;2023-04-08T14:25:48;102393.66;;;20.62;35.98
71424;BME280;59240;51.370;-0.486;2023-04-08T14:40:08;102334.56;;;19.89;35.63
71424;BME280;59240;51.370;-0.486;2023-04-08T14:47:37;102430.38;;;20.94;34.26
71424;BME280;59240;51.370;-0.486;2023-04-08T15:12:45;102343.22;;;21.30;34.33
71424;BME280;59240;51.370;-0.486;2023-04-08T15:16:07;102316.16;;;21.22;33.08
71424;BME280;59240;51.370;-0.486;2023-04-08T15:18:55;102349.13;;;21.15;32.72
71424;BME280;59240;51.370;-0.486;2023-04-08T15:37:30;102373.72;;;19.27;35.25
71424;BME280;59240;51.370;-0.486;2023-04-08T16:22:28;102359.97;;;20.65;33.19
71424;BME280;59240;51.370;-0.486;2023-04-08T17:59:16;102278.53;;;15.17;42.27
71424;BME280;59240;51.370;-0.486;2023-04-08T18:02:12;102288.28;;;15.09;42.17
71424;BME280;59240;51.370;-0.486;2023-04-08T18:58:50;102410.97;;;13.29;47.91
71424;BME280;59240;51.370;-0.486;2023-04-08T19:14:35;102353.09;;;12.29;49.10
71424;BME280;59240;51.370;-0.486;2023-04-08T19:30:13;102361.94;;;11.94;50.56
71424;BME280;59240;51.370;-0.486;2023-04-08T19:37:21;102342.78;;;11.59;51.93
71424;BME280;59240;51.370;-0.486;2023-04-08T19:53:28;102450.69;;;11.79;52.78
71424;BME280;59240;51.370;-0.486;2023-04-08T19:57:17;102457.66;;;11.71;52.73
71424;BME280;59240;51.370;-0.486;2023-04-08T20:00:23;102429.78;;;11.51;52.81
71424;BME280;59240;51.370;-0.486;2023-04-08T20:11:54;102396.69;;;10.99;53.41
71424;BME280;59240;51.370;-0.486;2023-04-08T20:14:56;102380.16;;;10.84;53.43
71424;BME280;59240;51.370;-0.486;2023-04-08T20:17:47;102403.59;;;10.90;53.13
71424;BME280;59240;51.370;-0.486;2023-04-08T20:32:12;102444.41;;;10.76;53.25
71424;BME280;59240;51.370;-0.486;2023-04-08T20:35:15;102385.19;;;10.37;54.14
71424;BME280;59240;51.370;-0.486;2023-04-08T20:42:45;102394.59;;;10.21;54.43
71424;BME280;59240;51.370;-0.486;2023-04-08T21:02:34;102375.97;;;9.58;56.33
71424;BME280;59240;51.370;-0.486;2023-04-08T21:13:53;102405.41;;;9.50;57.50
71424;BME280;59240;51.370;-0.486;2023-04-08T21:17:08;102484.69;;;9.92;57.77
71424;BME280;59240;51.370;-0.486;2023-04-08T21:19:42;102451.50;;;9.66;56.23
71424;BME280;59240;51.370;-0.486;2023-04-08T21:22:29;102439.28;;;9.56;56.78
71424;BME280;59240;51.370;-0.486;2023-04-08T21:25:06;102411.34;;;9.37;57.76
71424;BME280;59240;51.370;-0.486;2023-04-08T21:27:42;102391.28;;;9.20;58.13
71424;BME280;59240;51.370;-0.486;2023-04-08T21:30:24;102401.69;;;9.22;57.58
71424;BME280;59240;51.370;-0.486;2023-04-08T21:32:54;102405.97;;;9.15;58.92
71424;BME280;59240;51.370;-0.486;2023-04-08T21:35:21;102364.09;;;8.88;58.08
71424;BME280;59240;51.370;-0.486;2023-04-08T21:38:18;102479.13;;;9.49;59.64
71424;BME280;59240;51.370;-0.486;2023-04-08T21:44:45;102397.88;;;8.88;59.26
71424;BME280;59240;51.370;-0.486;2023-04-08T21:47:28;102390.00;;;8.82;60.29
71424;BME280;59240;51.370;-0.486;2023-04-08T21:50:29;102471.91;;;9.23;61.95
71424;BME280;59240;51.370;-0.486;2023-04-08T21:53:17;102371.59;;;8.60;60.38
71424;BME280;59240;51.370;-0.486;2023-04-08T21:56:44;102372.38;;;8.56;61.35
71424;BME280;59240;51.370;-0.486;2023-04-08T21:59:25;102412.44;;;8.73;61.00
71424;BME280;59240;51.370;-0.486;2023-04-08T22:02:25;102368.81;;;8.45;60.55
71424;BME280;59240;51.370;-0.486;2023-04-08T22:05:25;102426.28;;;8.72;62.00
71424;BME280;59240;51.370;-0.486;2023-04-08T22:09:06;102395.66;;;8.47;63.32
71424;BME280;59240;51.370;-0.486;2023-04-08T22:15:34;102411.22;;;8.45;62.18
71424;BME280;59240;51.370;-0.486;2023-04-08T22:27:20;102381.31;;;8.11;61.77
71424;BME280;59240;51.370;-0.486;2023-04-08T22:29:52;102416.22;;;8.32;61.69
71424;BME280;59240;51.370;-0.486;2023-04-08T22:32:24;102391.72;;;8.14;62.76
71424;BME280;59240;51.370;-0.486;2023-04-08T22:34:54;102383.81;;;8.05;62.31
71424;BME280;59240;51.370;-0.486;2023-04-08T22:37:27;102442.25;;;8.36;62.58
71424;BME280;59240;51.370;-0.486;2023-04-08T22:40:19;102432.59;;;8.28;63.71
71424;BME280;59240;51.370;-0.486;2023-04-08T22:42:48;102395.94;;;8.06;63.39
71424;BME280;59240;51.370;-0.486;2023-04-08T22:45:15;102447.41;;;8.35;63.29
71424;BME280;59240;51.370;-0.486;2023-04-08T22:47:47;102389.00;;;8.05;64.16
71424;BME280;59240;51.370;-0.486;2023-04-08T22:50:22;102411.53;;;8.09;63.33
71424;BME280;59240;51.370;-0.486;2023-04-08T22:52:50;102345.25;;;7.71;63.81
71424;BME280;59240;51.370;-0.486;2023-04-08T22:55:24;102385.38;;;7.94;63.67
71424;BME280;59240;51.370;-0.486;2023-04-08T22:57:55;102425.53;;;8.17;64.70
71424;BME280;59240;51.370;-0.486;2023-04-08T23:00:23;102401.91;;;8.01;64.56
71424;BME280;59240;51.370;-0.486;2023-04-08T23:02:51;102351.34;;;7.74;63.88
71424;BME280;59240;51.370;-0.486;2023-04-08T23:05:22;102459.56;;;8.36;65.13
71424;BME280;59240;51.370;-0.486;2023-04-08T23:07:57;102406.22;;;8.00;64.25
71424;BME280;59240;51.370;-0.486;2023-04-08T23:10:24;102367.00;;;7.79;65.36
71424;BME280;59240;51.370;-0.486;2023-04-08T23:12:51;102390.53;;;7.91;65.12
71424;BME280;59240;51.370;-0.486;2023-04-08T23:15:18;102430.66;;;8.14;64.74
71424;BME280;59240;51.370;-0.486;2023-04-08T23:17:45;102345.16;;;7.64;65.51